Time;durP1;ratioP1;P1;durP2;ratioP2;P2;SDS_P1;SDS_P2;PMS_P1;PMS_P2;Temp;Humidity;BMP_temperature;BMP_pressure;BME280_temperature;BME280_humidity;BME280_pressure;Samples;Min_cycle;Max_cycle;Signal;HPM_P1;HPM_P2
2023/07/26 00:00:55;;;;;;;29.55;12.73;;;;;;;;;;4955499;28;20038;-61
2023/07/26 00:03:21;;;;;;;25.15;12.55;;;;;;;;;;4967821;28;20038;-60
2023/07/26 00:05:48;;;;;;;26.75;12.93;;;;;;;;;;4950658;28;20034;-59
2023/07/26 00:08:14;;;;;;;24.00;12.18;;;;;;;;;;4968503;28;20047;-60
2023/07/26 00:10:46;;;;;;;24.58;12.32;;;;;;;;;;4966438;28;20047;-59
2023/07/26 00:13:15;;;;;;;28.15;13.05;;;;;;;;;;4958805;28;20054;-59
2023/07/26 00:15:41;;;;;;;28.80;13.60;;;;;;;;;;4965754;28;20050;-59
2023/07/26 00:18:07;;;;;;;29.88;13.13;;;;;;;;;;4946336;28;20295;-59
2023/07/26 00:20:34;;;;;;;36.95;14.13;;;;;;;;;;4933782;28;20057;-59
2023/07/26 00:23:00;;;;;;;30.17;13.25;;;;;;;;;;4965094;28;20042;-60
2023/07/26 00:25:26;;;;;;;30.48;13.25;;;;;;;;;;4966828;28;20042;-59
2023/07/26 00:27:52;;;;;;;28.92;13.57;;;;;;;;;;4969347;28;20065;-59
2023/07/26 00:30:19;;;;;;;34.58;13.27;;;;;;;;;;4965564;28;20418;-60
2023/07/26 00:32:45;;;;;;;29.77;13.77;;;;;;;;;;4948829;28;20061;-60
2023/07/26 00:35:24;;;;;;;32.90;13.65;;;;;;;;;;4933831;28;20043;-60
2023/07/26 00:37:50;;;;;;;26.73;12.77;;;;;;;;;;4963808;28;20081;-60
2023/07/26 00:40:18;;;;;;;31.70;13.00;;;;;;;;;;4967310;28;20057;-59
2023/07/26 00:42:45;;;;;;;34.72;13.55;;;;;;;;;;4962681;28;20038;-60
2023/07/26 00:45:11;;;;;;;24.20;12.93;;;;;;;;;;4933597;28;20102;-61
2023/07/26 00:47:38;;;;;;;26.20;13.48;;;;;;;;;;4950015;28;20057;-60
2023/07/26 00:50:05;;;;;;;34.10;14.35;;;;;;;;;;4968997;28;20041;-60
2023/07/26 00:52:32;;;;;;;28.27;14.40;;;;;;;;;;4963618;28;20031;-61
2023/07/26 00:55:00;;;;;;;29.65;14.75;;;;;;;;;;4965231;28;20403;-60
2023/07/26 00:57:26;;;;;;;31.15;14.20;;;;;;;;;;4964358;28;20046;-60
2023/07/26 00:59:52;;;;;;;32.10;15.20;;;;;;;;;;4967133;28;20042;-60
2023/07/26 01:02:19;;;;;;;37.63;15.35;;;;;;;;;;4948969;28;20041;-60
2023/07/26 01:04:45;;;;;;;34.30;14.65;;;;;;;;;;4951273;28;20038;-61
2023/07/26 01:07:15;;;;;;;32.53;14.35;;;;;;;;;;4953182;28;20513;-61
2023/07/26 01:10:17;;;;;;;33.38;14.20;;;;;;;;;;4967013;28;20049;-62
2023/07/26 01:12:52;;;;;;;35.28;13.50;;;;;;;;;;4946283;28;20043;-61
2023/07/26 01:15:29;;;;;;;27.85;13.85;;;;;;;;;;4962814;28;20035;-61
2023/07/26 01:18:11;;;;;;;32.00;14.38;;;;;;;;;;4931343;28;20054;-61
2023/07/26 01:20:38;;;;;;;26.55;13.60;;;;;;;;;;4967209;28;20055;-61
2023/07/26 01:23:06;;;;;;;35.80;14.27;;;;;;;;;;4949736;28;20058;-61
2023/07/26 01:25:32;;;;;;;32.35;15.48;;;;;;;;;;4970671;28;20054;-61
2023/07/26 01:27:59;;;;;;;33.33;15.02;;;;;;;;;;4973962;28;20057;-61
2023/07/26 01:30:29;;;;;;;30.65;14.68;;;;;;;;;;4970597;28;20061;-61
2023/07/26 01:32:58;;;;;;;30.13;13.57;;;;;;;;;;4972069;28;20417;-61
2023/07/26 01:35:25;;;;;;;34.45;14.55;;;;;;;;;;4951118;28;20039;-61
2023/07/26 01:37:55;;;;;;;33.45;13.88;;;;;;;;;;4970132;28;20058;-61
2023/07/26 01:40:22;;;;;;;30.48;14.57;;;;;;;;;;4968691;28;20039;-61
2023/07/26 01:42:49;;;;;;;29.67;14.32;;;;;;;;;;4935484;28;20039;-61
2023/07/26 01:45:16;;;;;;;28.77;13.48;;;;;;;;;;4968446;28;20034;-61
2023/07/26 01:47:42;;;;;;;34.50;13.30;;;;;;;;;;4971120;28;20486;-61
2023/07/26 01:50:09;;;;;;;25.85;13.18;;;;;;;;;;4954505;28;20057;-62
2023/07/26 01:52:35;;;;;;;31.20;14.05;;;;;;;;;;4951614;28;20042;-62
2023/07/26 01:55:01;;;;;;;30.75;14.43;;;;;;;;;;4937572;28;20064;-62
2023/07/26 01:57:28;;;;;;;29.17;13.00;;;;;;;;;;4970171;28;20415;-61
2023/07/26 01:59:54;;;;;;;29.30;13.93;;;;;;;;;;4954484;28;20490;-61
2023/07/26 02:02:20;;;;;;;24.38;12.90;;;;;;;;;;4968340;28;20051;-61
2023/07/26 02:04:47;;;;;;;27.77;12.63;;;;;;;;;;4954379;28;20047;-61
2023/07/26 02:07:13;;;;;;;24.30;11.02;;;;;;;;;;4968216;28;20026;-61
2023/07/26 02:09:39;;;;;;;25.55;12.07;;;;;;;;;;4970691;28;20035;-62
2023/07/26 02:12:05;;;;;;;25.00;11.23;;;;;;;;;;4954651;28;20066;-61
2023/07/26 02:14:32;;;;;;;19.33;10.13;;;;;;;;;;4967578;28;20047;-61
2023/07/26 02:16:58;;;;;;;18.23;10.40;;;;;;;;;;4951849;28;20128;-62
2023/07/26 02:19:24;;;;;;;17.35;9.63;;;;;;;;;;4966624;28;20049;-62
2023/07/26 02:21:50;;;;;;;19.38;10.10;;;;;;;;;;4937426;28;20034;-61
2023/07/26 02:24:16;;;;;;;19.33;10.30;;;;;;;;;;4952697;28;20042;-61
2023/07/26 02:26:42;;;;;;;18.13;10.45;;;;;;;;;;4971708;28;20066;-61
2023/07/26 02:29:10;;;;;;;24.08;10.77;;;;;;;;;;4965436;28;20042;-62
2023/07/26 02:31:37;;;;;;;19.15;10.27;;;;;;;;;;4967164;28;20038;-61
2023/07/26 02:34:03;;;;;;;31.23;11.40;;;;;;;;;;4951591;28;20047;-61
2023/07/26 02:36:29;;;;;;;16.73;10.27;;;;;;;;;;4967893;28;20593;-61
2023/07/26 02:38:55;;;;;;;20.75;10.10;;;;;;;;;;4952695;28;20043;-61
2023/07/26 02:41:21;;;;;;;26.42;11.38;;;;;;;;;;4949746;28;20054;-60
2023/07/26 02:43:47;;;;;;;24.75;10.75;;;;;;;;;;4966652;28;20050;-61
2023/07/26 02:46:13;;;;;;;20.05;9.63;;;;;;;;;;4951693;28;20038;-61
2023/07/26 02:48:39;;;;;;;22.65;10.10;;;;;;;;;;4969455;28;20422;-61
2023/07/26 02:51:06;;;;;;;20.88;10.57;;;;;;;;;;4966213;28;20061;-61
2023/07/26 02:53:32;;;;;;;21.15;10.50;;;;;;;;;;4951063;28;20156;-61
2023/07/26 02:55:58;;;;;;;22.50;11.10;;;;;;;;;;4951647;28;20031;-61
2023/07/26 02:58:24;;;;;;;21.17;11.38;;;;;;;;;;4936770;28;20041;-61
2023/07/26 03:00:53;;;;;;;16.63;9.38;;;;;;;;;;4971153;28;20150;-61
2023/07/26 03:03:19;;;;;;;17.38;9.80;;;;;;;;;;4970383;28;20039;-61
2023/07/26 03:05:46;;;;;;;16.08;9.25;;;;;;;;;;4953656;28;20053;-60
2023/07/26 03:08:12;;;;;;;19.27;9.70;;;;;;;;;;4971703;28;20516;-61
2023/07/26 03:10:38;;;;;;;21.83;10.80;;;;;;;;;;4970881;28;20069;-60
2023/07/26 03:13:04;;;;;;;22.02;9.93;;;;;;;;;;4967752;28;20022;-61
2023/07/26 03:15:30;;;;;;;17.55;8.93;;;;;;;;;;4967146;28;20041;-61
2023/07/26 03:17:57;;;;;;;17.27;8.48;;;;;;;;;;4970484;28;20042;-61
2023/07/26 03:20:23;;;;;;;16.25;9.18;;;;;;;;;;4946339;28;20050;-61
2023/07/26 03:22:49;;;;;;;14.98;8.40;;;;;;;;;;4968367;28;20046;-61
2023/07/26 03:25:15;;;;;;;15.27;8.57;;;;;;;;;;4967783;28;20042;-60
2023/07/26 03:27:42;;;;;;;21.38;9.65;;;;;;;;;;4969933;28;20047;-60
2023/07/26 03:30:08;;;;;;;21.48;9.93;;;;;;;;;;4969303;28;20055;-61
2023/07/26 03:32:34;;;;;;;18.13;9.60;;;;;;;;;;4934695;28;20038;-61
2023/07/26 03:35:00;;;;;;;21.55;9.95;;;;;;;;;;4970185;28;20034;-61
2023/07/26 03:37:26;;;;;;;16.33;9.23;;;;;;;;;;4965648;28;20034;-60
2023/07/26 03:39:53;;;;;;;15.10;9.32;;;;;;;;;;4967109;28;20390;-60
2023/07/26 03:42:19;;;;;;;16.33;8.85;;;;;;;;;;4964626;28;20038;-60
2023/07/26 03:44:45;;;;;;;20.60;8.77;;;;;;;;;;4967828;28;20051;-61
2023/07/26 03:47:11;;;;;;;21.77;10.15;;;;;;;;;;4966475;28;20027;-61
2023/07/26 03:49:40;;;;;;;19.77;10.43;;;;;;;;;;4950537;28;20062;-61
2023/07/26 03:52:06;;;;;;;17.42;9.07;;;;;;;;;;4965543;28;20051;-61
2023/07/26 03:54:32;;;;;;;16.58;8.30;;;;;;;;;;4968138;28;20426;-61
2023/07/26 03:57:00;;;;;;;17.30;8.52;;;;;;;;;;4951802;28;20035;-61
2023/07/26 03:59:26;;;;;;;19.90;9.75;;;;;;;;;;4965549;28;20058;-61
2023/07/26 04:01:52;;;;;;;17.17;8.98;;;;;;;;;;4950506;28;20495;-61
2023/07/26 04:04:18;;;;;;;18.45;9.10;;;;;;;;;;4952152;28;20026;-61
2023/07/26 04:06:44;;;;;;;14.82;7.75;;;;;;;;;;4951253;28;20042;-61
2023/07/26 04:09:10;;;;;;;13.52;7.78;;;;;;;;;;4970568;28;20053;-61
2023/07/26 04:11:36;;;;;;;15.23;8.30;;;;;;;;;;4965207;28;20482;-60
2023/07/26 04:14:03;;;;;;;17.60;8.15;;;;;;;;;;4948994;28;20582;-60
2023/07/26 04:16:29;;;;;;;17.80;8.82;;;;;;;;;;4932181;28;20042;-61
2023/07/26 04:18:55;;;;;;;16.65;8.70;;;;;;;;;;4967921;28;20054;-61
2023/07/26 04:21:21;;;;;;;15.85;8.05;;;;;;;;;;4967701;28;20038;-61
2023/07/26 04:23:47;;;;;;;14.38;8.32;;;;;;;;;;4967279;28;20046;-61
2023/07/26 04:26:13;;;;;;;17.33;9.02;;;;;;;;;;4951591;28;20045;-60
2023/07/26 04:28:40;;;;;;;16.83;8.07;;;;;;;;;;4954796;28;20395;-60
2023/07/26 04:31:06;;;;;;;14.18;8.02;;;;;;;;;;4948851;28;20043;-61
2023/07/26 04:33:32;;;;;;;14.57;7.97;;;;;;;;;;4965997;28;21037;-61
2023/07/26 04:35:58;;;;;;;16.88;8.27;;;;;;;;;;4963034;28;20046;-61
2023/07/26 04:38:25;;;;;;;22.98;8.10;;;;;;;;;;4948915;28;20042;-60
2023/07/26 04:40:51;;;;;;;13.77;8.15;;;;;;;;;;4945639;28;20058;-61
2023/07/26 04:43:19;;;;;;;16.63;7.43;;;;;;;;;;4963653;28;20042;-58
2023/07/26 04:45:50;;;;;;;14.52;6.80;;;;;;;;;;4962452;28;20034;-59
2023/07/26 04:48:17;;;;;;;13.07;7.45;;;;;;;;;;4948918;28;20066;-61
2023/07/26 04:50:44;;;;;;;15.98;7.80;;;;;;;;;;4955395;28;20043;-61
2023/07/26 04:53:11;;;;;;;14.38;8.05;;;;;;;;;;4968557;28;20038;-62
2023/07/26 04:55:44;;;;;;;17.20;7.78;;;;;;;;;;4967751;28;20055;-61
2023/07/26 04:58:10;;;;;;;12.90;7.45;;;;;;;;;;4952636;28;20053;-62
2023/07/26 05:00:38;;;;;;;15.02;8.23;;;;;;;;;;4950301;28;20039;-61
2023/07/26 05:03:09;;;;;;;16.58;7.57;;;;;;;;;;4966846;28;20034;-61
2023/07/26 05:05:36;;;;;;;17.13;8.73;;;;;;;;;;4965453;28;20043;-61
2023/07/26 05:08:03;;;;;;;11.68;6.80;;;;;;;;;;4967724;28;20043;-60
2023/07/26 05:10:30;;;;;;;14.20;7.40;;;;;;;;;;4965920;28;20390;-61
2023/07/26 05:12:57;;;;;;;13.45;7.18;;;;;;;;;;4964282;28;20050;-61
2023/07/26 05:15:23;;;;;;;11.50;7.47;;;;;;;;;;4947159;28;20046;-61
2023/07/26 05:17:51;;;;;;;15.48;8.07;;;;;;;;;;4965527;28;20050;-61
2023/07/26 05:20:17;;;;;;;12.05;7.28;;;;;;;;;;4950293;28;20046;-61
2023/07/26 05:22:44;;;;;;;15.82;7.40;;;;;;;;;;4967600;28;20430;-62
2023/07/26 05:25:10;;;;;;;13.98;8.45;;;;;;;;;;4967052;28;20047;-61
2023/07/26 05:27:37;;;;;;;18.15;8.82;;;;;;;;;;4952880;28;20042;-60
2023/07/26 05:30:03;;;;;;;21.58;9.63;;;;;;;;;;4968678;28;20054;-61
2023/07/26 05:32:30;;;;;;;18.48;10.32;;;;;;;;;;4968302;28;20033;-61
2023/07/26 05:34:58;;;;;;;21.42;11.93;;;;;;;;;;4951440;28;20046;-61
2023/07/26 05:37:24;;;;;;;15.75;9.75;;;;;;;;;;4965236;28;20046;-61
2023/07/26 05:39:51;;;;;;;20.00;10.82;;;;;;;;;;4966384;28;20039;-61
2023/07/26 05:42:18;;;;;;;19.75;10.55;;;;;;;;;;4947084;28;20434;-60
2023/07/26 05:44:44;;;;;;;19.15;11.07;;;;;;;;;;4965974;28;20046;-60
2023/07/26 05:47:11;;;;;;;22.00;10.60;;;;;;;;;;4965180;28;20037;-61
2023/07/26 05:49:44;;;;;;;31.73;11.63;;;;;;;;;;4947279;28;20039;-61
2023/07/26 05:52:10;;;;;;;25.38;11.48;;;;;;;;;;4947625;28;20054;-61
2023/07/26 05:54:36;;;;;;;26.52;11.23;;;;;;;;;;4950918;28;20038;-61
2023/07/26 05:57:03;;;;;;;21.13;10.60;;;;;;;;;;4968110;28;20042;-61
2023/07/26 05:59:29;;;;;;;20.10;10.75;;;;;;;;;;4934557;28;20047;-61
2023/07/26 06:01:58;;;;;;;25.50;13.40;;;;;;;;;;4932892;28;20042;-61
2023/07/26 06:04:24;;;;;;;19.73;10.98;;;;;;;;;;4968592;28;20058;-61
2023/07/26 06:06:51;;;;;;;25.58;11.35;;;;;;;;;;4963509;28;20055;-61
2023/07/26 06:09:17;;;;;;;24.90;11.98;;;;;;;;;;4949096;28;20047;-61
2023/07/26 06:11:44;;;;;;;18.10;10.80;;;;;;;;;;4969298;28;20050;-60
2023/07/26 06:14:10;;;;;;;18.63;10.95;;;;;;;;;;4970248;28;20043;-61
2023/07/26 06:16:36;;;;;;;20.20;10.65;;;;;;;;;;4969270;28;20058;-61
2023/07/26 06:19:03;;;;;;;20.60;11.10;;;;;;;;;;4954784;28;20057;-61
2023/07/26 06:21:29;;;;;;;19.55;11.02;;;;;;;;;;4952532;28;20451;-61
2023/07/26 06:23:55;;;;;;;20.80;11.13;;;;;;;;;;4956273;28;20026;-61
2023/07/26 06:26:21;;;;;;;24.92;11.55;;;;;;;;;;4970044;28;20030;-60
2023/07/26 06:28:48;;;;;;;22.42;11.05;;;;;;;;;;4972374;28;20042;-60
2023/07/26 06:31:14;;;;;;;15.98;10.00;;;;;;;;;;4969054;28;20038;-60
2023/07/26 06:33:40;;;;;;;20.42;11.27;;;;;;;;;;4966042;28;20035;-60
2023/07/26 06:36:06;;;;;;;18.75;10.80;;;;;;;;;;4967210;28;20049;-60
2023/07/26 06:38:33;;;;;;;25.48;10.77;;;;;;;;;;4970759;28;20734;-60
2023/07/26 06:41:00;;;;;;;22.90;10.77;;;;;;;;;;4953422;28;20046;-61
2023/07/26 06:43:27;;;;;;;24.40;11.25;;;;;;;;;;4968974;28;20038;-61
2023/07/26 06:45:53;;;;;;;19.73;10.35;;;;;;;;;;4953013;28;20051;-61
2023/07/26 06:48:19;;;;;;;19.83;10.88;;;;;;;;;;4970041;28;20046;-60
2023/07/26 06:50:45;;;;;;;15.95;9.25;;;;;;;;;;4955697;28;20054;-60
2023/07/26 06:53:12;;;;;;;22.30;10.68;;;;;;;;;;4968611;28;20031;-61
2023/07/26 06:55:39;;;;;;;19.42;11.70;;;;;;;;;;4948766;28;20046;-61
2023/07/26 06:58:05;;;;;;;23.13;10.63;;;;;;;;;;4950339;28;20038;-60
2023/07/26 07:00:31;;;;;;;16.38;10.07;;;;;;;;;;4968499;28;20042;-60
2023/07/26 07:02:59;;;;;;;21.35;9.60;;;;;;;;;;4952757;28;20414;-60
2023/07/26 07:05:30;;;;;;;15.52;8.90;;;;;;;;;;4970069;28;20049;-61
2023/07/26 07:07:56;;;;;;;23.98;10.70;;;;;;;;;;4969344;28;20046;-60
2023/07/26 07:10:23;;;;;;;13.07;9.38;;;;;;;;;;4966914;28;20047;-60
2023/07/26 07:12:49;;;;;;;17.50;10.07;;;;;;;;;;4967687;28;20041;-60
2023/07/26 07:15:15;;;;;;;16.45;9.68;;;;;;;;;;4932676;28;20027;-60
2023/07/26 07:17:42;;;;;;;18.83;9.38;;;;;;;;;;4967566;28;20062;-60
2023/07/26 07:20:08;;;;;;;15.73;9.43;;;;;;;;;;4968660;28;20042;-60
2023/07/26 07:22:34;;;;;;;14.52;8.77;;;;;;;;;;4966108;28;20059;-60
2023/07/26 07:25:02;;;;;;;17.95;9.52;;;;;;;;;;4940437;28;20034;-60
2023/07/26 07:27:28;;;;;;;15.50;9.90;;;;;;;;;;4969367;28;20039;-60
2023/07/26 07:29:55;;;;;;;17.15;9.35;;;;;;;;;;4967732;28;20042;-61
2023/07/26 07:32:21;;;;;;;18.38;9.43;;;;;;;;;;4948859;28;20050;-60
2023/07/26 07:34:48;;;;;;;14.52;9.75;;;;;;;;;;4968500;28;20051;-60
2023/07/26 07:37:14;;;;;;;20.33;9.90;;;;;;;;;;4967499;28;20050;-61
2023/07/26 07:39:40;;;;;;;17.27;9.45;;;;;;;;;;4967197;28;20033;-61
2023/07/26 07:42:06;;;;;;;18.85;8.90;;;;;;;;;;4968613;28;20038;-61
2023/07/26 07:44:32;;;;;;;18.20;8.73;;;;;;;;;;4966719;28;20561;-61
2023/07/26 07:46:58;;;;;;;16.83;9.00;;;;;;;;;;4955841;28;20042;-61
2023/07/26 07:49:24;;;;;;;19.17;9.35;;;;;;;;;;4975709;28;20050;-61
2023/07/26 07:51:52;;;;;;;12.50;9.30;;;;;;;;;;4975451;28;20038;-60
2023/07/26 07:54:18;;;;;;;20.73;9.85;;;;;;;;;;4970556;28;20038;-60
2023/07/26 07:56:45;;;;;;;17.02;9.57;;;;;;;;;;4966030;28;20057;-61
2023/07/26 07:59:11;;;;;;;22.17;8.93;;;;;;;;;;4967194;28;20103;-61
2023/07/26 08:01:38;;;;;;;16.27;9.23;;;;;;;;;;4948069;28;20050;-61
2023/07/26 08:04:04;;;;;;;17.48;9.68;;;;;;;;;;4966774;28;20046;-61
2023/07/26 08:06:32;;;;;;;15.63;8.98;;;;;;;;;;4965223;28;20038;-60
2023/07/26 08:08:58;;;;;;;18.90;9.52;;;;;;;;;;4953931;28;20050;-60
2023/07/26 08:11:24;;;;;;;18.67;10.05;;;;;;;;;;4948033;28;20038;-61
2023/07/26 08:13:50;;;;;;;15.93;9.45;;;;;;;;;;4967806;28;20042;-61
2023/07/26 08:16:16;;;;;;;20.40;8.32;;;;;;;;;;4965841;28;20043;-60
2023/07/26 08:18:43;;;;;;;14.80;8.57;;;;;;;;;;4968469;28;20046;-60
2023/07/26 08:21:11;;;;;;;16.00;8.50;;;;;;;;;;4950931;28;20039;-59
2023/07/26 08:23:38;;;;;;;19.23;9.27;;;;;;;;;;4967374;28;20054;-60
2023/07/26 08:26:09;;;;;;;17.67;9.07;;;;;;;;;;4951788;28;20043;-60
2023/07/26 08:28:35;;;;;;;19.38;9.48;;;;;;;;;;4965268;28;20038;-61
2023/07/26 08:31:01;;;;;;;18.50;9.10;;;;;;;;;;4963846;28;20046;-61
2023/07/26 08:33:28;;;;;;;17.38;9.43;;;;;;;;;;4947127;28;20054;-61
2023/07/26 08:35:55;;;;;;;15.25;9.13;;;;;;;;;;4967442;28;20057;-61
2023/07/26 08:38:22;;;;;;;13.90;8.85;;;;;;;;;;4967909;28;20047;-60
2023/07/26 08:40:49;;;;;;;18.45;8.95;;;;;;;;;;4967086;28;20046;-61
2023/07/26 08:43:18;;;;;;;11.40;7.30;;;;;;;;;;4963502;28;20387;-61
2023/07/26 08:45:45;;;;;;;16.00;8.02;;;;;;;;;;4967375;28;20050;-61
2023/07/26 08:48:12;;;;;;;14.52;8.25;;;;;;;;;;4951687;28;20043;-62
2023/07/26 08:50:39;;;;;;;11.32;6.95;;;;;;;;;;4950464;28;20421;-62
2023/07/26 08:53:06;;;;;;;11.65;7.07;;;;;;;;;;4968207;28;20545;-62
2023/07/26 08:55:33;;;;;;;10.50;6.68;;;;;;;;;;4948400;28;20054;-61
2023/07/26 08:58:00;;;;;;;11.05;6.43;;;;;;;;;;4933510;28;20235;-62
2023/07/26 09:00:27;;;;;;;11.80;6.75;;;;;;;;;;4965091;28;20042;-62
2023/07/26 09:02:56;;;;;;;11.27;7.22;;;;;;;;;;4951071;28;20038;-62
2023/07/26 09:05:23;;;;;;;13.05;6.60;;;;;;;;;;4950651;28;20030;-61
2023/07/26 09:07:52;;;;;;;11.30;5.10;;;;;;;;;;4951633;28;20375;-61
2023/07/26 09:10:29;;;;;;;7.85;5.40;;;;;;;;;;4964301;28;20062;-61
2023/07/26 09:13:08;;;;;;;11.60;4.88;;;;;;;;;;4963406;28;20391;-60
2023/07/26 09:15:36;;;;;;;;;;;;;;;;;;4965482;28;20537;-61
2023/07/26 09:18:06;;;;;;;8.93;5.28;;;;;;;;;;4967666;28;20377;-62
2023/07/26 09:20:33;;;;;;;8.40;5.32;;;;;;;;;;4963788;28;22263;-61
2023/07/26 09:23:10;;;;;;;15.68;5.80;;;;;;;;;;4963935;28;20035;-62
2023/07/26 09:25:42;;;;;;;7.20;5.32;;;;;;;;;;4967154;28;20057;-62
2023/07/26 09:28:15;;;;;;;10.93;5.82;;;;;;;;;;4965873;28;20055;-63
2023/07/26 09:30:45;;;;;;;8.43;5.13;;;;;;;;;;4965971;28;20042;-62
2023/07/26 09:33:12;;;;;;;9.15;5.50;;;;;;;;;;4947621;28;20498;-62
2023/07/26 09:35:47;;;;;;;7.90;4.95;;;;;;;;;;4963957;28;20038;-62
2023/07/26 09:38:18;;;;;;;6.22;4.85;;;;;;;;;;4963541;28;20045;-61
2023/07/26 09:40:44;;;;;;;7.15;4.30;;;;;;;;;;4963445;28;20030;-61
2023/07/26 09:43:10;;;;;;;8.30;4.90;;;;;;;;;;4963367;28;20054;-62
2023/07/26 09:45:38;;;;;;;8.57;4.63;;;;;;;;;;4964792;28;20042;-61
2023/07/26 09:48:09;;;;;;;6.88;4.35;;;;;;;;;;4971111;28;20050;-62
2023/07/26 09:50:36;;;;;;;9.63;4.65;;;;;;;;;;4970266;28;20046;-62
2023/07/26 09:53:04;;;;;;;6.95;4.93;;;;;;;;;;4968455;28;20034;-62
2023/07/26 09:55:30;;;;;;;7.25;4.57;;;;;;;;;;4967185;28;20486;-61
2023/07/26 09:57:57;;;;;;;7.28;4.97;;;;;;;;;;4971439;28;20387;-61
2023/07/26 10:00:26;;;;;;;9.45;5.00;;;;;;;;;;4953962;28;20051;-61
2023/07/26 10:03:13;;;;;;;8.18;4.93;;;;;;;;;;4971673;28;20034;-61
2023/07/26 10:05:48;;;;;;;7.15;4.68;;;;;;;;;;4985991;28;20054;-62
2023/07/26 10:08:15;;;;;;;7.05;4.28;;;;;;;;;;4960642;28;20518;-61
2023/07/26 10:10:42;;;;;;;5.25;4.07;;;;;;;;;;4925816;28;20047;-62
2023/07/26 10:13:10;;;;;;;7.18;3.72;;;;;;;;;;4952376;28;20057;-61
2023/07/26 10:15:41;;;;;;;8.00;3.75;;;;;;;;;;4971325;28;20051;-61
2023/07/26 10:18:08;;;;;;;4.45;3.50;;;;;;;;;;4970900;28;20049;-62
2023/07/26 10:20:37;;;;;;;8.43;3.10;;;;;;;;;;4938555;28;20513;-63
2023/07/26 10:23:04;;;;;;;5.85;3.50;;;;;;;;;;4953108;28;20030;-61
2023/07/26 10:25:31;;;;;;;5.97;4.40;;;;;;;;;;4969926;28;20038;-62
2023/07/26 10:27:58;;;;;;;6.05;2.90;;;;;;;;;;4968189;28;20053;-62
2023/07/26 10:30:24;;;;;;;5.22;3.00;;;;;;;;;;4969156;28;20034;-61
2023/07/26 10:32:51;;;;;;;13.60;5.25;;;;;;;;;;4971013;28;20399;-62
2023/07/26 10:35:45;;;;;;;5.63;3.40;;;;;;;;;;4935135;28;20035;-62
2023/07/26 10:38:14;;;;;;;5.65;2.95;;;;;;;;;;4950557;28;20115;-61
2023/07/26 10:40:41;;;;;;;6.45;3.20;;;;;;;;;;4951874;28;20038;-61
2023/07/26 10:43:19;;;;;;;5.35;3.00;;;;;;;;;;4949317;28;20038;-61
2023/07/26 10:45:47;;;;;;;5.57;3.38;;;;;;;;;;4971152;28;20054;-61
2023/07/26 10:48:26;;;;;;;5.68;3.72;;;;;;;;;;4933994;28;20047;-61
2023/07/26 10:50:58;;;;;;;6.15;3.75;;;;;;;;;;4966316;28;20046;-64
2023/07/26 10:53:36;;;;;;;8.85;4.50;;;;;;;;;;4965287;28;20391;-62
2023/07/26 10:56:10;;;;;;;8.40;3.70;;;;;;;;;;4952629;28;20047;-60
2023/07/26 10:58:48;;;;;;;5.18;3.90;;;;;;;;;;4966866;28;20514;-60
2023/07/26 11:01:37;;;;;;;5.43;3.78;;;;;;;;;;4951017;28;20042;-60
2023/07/26 11:04:20;;;;;;;4.50;3.40;;;;;;;;;;4968141;28;20049;-61
2023/07/26 11:06:58;;;;;;;5.00;3.40;;;;;;;;;;4973243;28;20043;-60
2023/07/26 11:09:26;;;;;;;5.25;3.40;;;;;;;;;;4970646;28;20413;-60
2023/07/26 11:12:02;;;;;;;4.93;3.30;;;;;;;;;;4970590;28;20258;-60
2023/07/26 11:14:33;;;;;;;7.50;3.38;;;;;;;;;;4953661;28;20049;-60
2023/07/26 11:17:10;;;;;;;8.27;4.00;;;;;;;;;;4974110;28;20031;-60
2023/07/26 11:19:49;;;;;;;5.85;3.67;;;;;;;;;;4954812;28;20491;-60
2023/07/26 11:22:18;;;;;;;5.72;3.80;;;;;;;;;;4949904;28;20031;-60
2023/07/26 11:24:46;;;;;;;7.00;4.45;;;;;;;;;;4967215;28;20053;-60
2023/07/26 11:27:13;;;;;;;4.85;4.32;;;;;;;;;;4950886;28;20055;-60
2023/07/26 11:29:39;;;;;;;8.07;4.15;;;;;;;;;;4966217;28;20046;-61
2023/07/26 11:32:06;;;;;;;9.05;4.38;;;;;;;;;;4965150;28;20054;-61
2023/07/26 11:34:32;;;;;;;6.13;3.97;;;;;;;;;;4951817;28;20023;-62
2023/07/26 11:37:08;;;;;;;6.47;4.20;;;;;;;;;;4970555;28;20050;-61
2023/07/26 11:39:35;;;;;;;5.85;3.60;;;;;;;;;;4950153;28;20073;-62
2023/07/26 11:42:01;;;;;;;5.60;3.95;;;;;;;;;;4967513;28;20047;-61
2023/07/26 11:44:28;;;;;;;10.55;3.80;;;;;;;;;;4948369;28;20046;-60
2023/07/26 11:46:54;;;;;;;14.00;3.85;;;;;;;;;;4969356;28;20050;-60
2023/07/26 11:49:21;;;;;;;8.45;4.10;;;;;;;;;;4972762;28;20026;-59
2023/07/26 11:51:49;;;;;;;6.00;3.92;;;;;;;;;;4973044;28;20482;-59
2023/07/26 11:54:16;;;;;;;4.93;3.10;;;;;;;;;;4969664;28;20050;-60
2023/07/26 11:56:42;;;;;;;7.20;4.15;;;;;;;;;;4968602;28;20039;-61
2023/07/26 11:59:09;;;;;;;6.97;3.60;;;;;;;;;;4969503;28;20054;-61
2023/07/26 12:01:39;;;;;;;6.70;3.90;;;;;;;;;;4966014;28;20034;-62
2023/07/26 12:04:16;;;;;;;4.60;3.15;;;;;;;;;;4966447;28;20371;-61
2023/07/26 12:06:44;;;;;;;6.47;3.42;;;;;;;;;;4969367;28;20046;-61
2023/07/26 12:09:11;;;;;;;6.03;3.75;;;;;;;;;;4966944;28;20414;-62
2023/07/26 12:11:57;;;;;;;6.13;3.88;;;;;;;;;;4965404;28;20050;-61
2023/07/26 12:14:23;;;;;;;7.03;3.30;;;;;;;;;;4961106;28;20031;-61
2023/07/26 12:16:51;;;;;;;7.30;3.22;;;;;;;;;;4970546;28;20035;-62
2023/07/26 12:19:21;;;;;;;4.88;3.10;;;;;;;;;;4967687;28;20027;-61
2023/07/26 12:21:48;;;;;;;5.30;2.88;;;;;;;;;;4965956;28;20534;-62
2023/07/26 12:24:15;;;;;;;5.22;3.35;;;;;;;;;;4966295;28;20043;-62
2023/07/26 12:26:45;;;;;;;7.90;3.40;;;;;;;;;;4966287;28;20517;-61
2023/07/26 12:29:11;;;;;;;6.07;3.35;;;;;;;;;;4950534;28;20058;-61
2023/07/26 12:31:38;;;;;;;5.63;3.20;;;;;;;;;;4965341;28;20053;-63
2023/07/26 12:34:04;;;;;;;5.78;3.22;;;;;;;;;;4966557;28;20031;-64
2023/07/26 12:36:45;;;;;;;8.32;3.42;;;;;;;;;;4965719;28;20034;-63
2023/07/26 12:39:13;;;;;;;4.72;2.85;;;;;;;;;;4967151;28;20042;-61
2023/07/26 12:41:40;;;;;;;4.78;2.40;;;;;;;;;;4934783;28;20050;-61
2023/07/26 12:44:07;;;;;;;6.97;2.80;;;;;;;;;;4964906;28;20046;-63
2023/07/26 12:46:37;;;;;;;5.40;2.78;;;;;;;;;;4963764;28;20517;-64
2023/07/26 12:49:08;;;;;;;4.72;2.60;;;;;;;;;;4949257;28;20039;-62
2023/07/26 12:51:34;;;;;;;6.88;2.38;;;;;;;;;;4949536;28;20035;-62
2023/07/26 12:54:02;;;;;;;11.68;2.22;;;;;;;;;;4965058;28;20042;-63
2023/07/26 12:56:28;;;;;;;3.67;2.10;;;;;;;;;;4967426;28;20042;-64
2023/07/26 12:58:54;;;;;;;3.97;2.42;;;;;;;;;;4963615;28;20041;-62
2023/07/26 13:01:21;;;;;;;5.65;2.28;;;;;;;;;;4963660;28;20506;-62
2023/07/26 13:03:47;;;;;;;4.03;2.35;;;;;;;;;;4948740;28;20039;-62
2023/07/26 13:06:13;;;;;;;4.25;2.28;;;;;;;;;;4949356;28;20041;-61
2023/07/26 13:08:40;;;;;;;4.40;2.30;;;;;;;;;;4965283;28;20069;-63
2023/07/26 13:11:06;;;;;;;4.47;2.40;;;;;;;;;;4966047;28;20058;-62
2023/07/26 13:13:32;;;;;;;4.22;2.72;;;;;;;;;;4947509;28;20058;-62
2023/07/26 13:16:00;;;;;;;4.47;2.50;;;;;;;;;;4953737;28;20050;-63
2023/07/26 13:18:26;;;;;;;5.20;2.50;;;;;;;;;;4948834;28;20041;-61
2023/07/26 13:20:53;;;;;;;3.92;2.30;;;;;;;;;;4959953;28;20049;-61
2023/07/26 13:23:19;;;;;;;5.50;2.75;;;;;;;;;;4966076;28;20046;-62
2023/07/26 13:25:46;;;;;;;5.70;2.78;;;;;;;;;;4968873;28;20042;-62
2023/07/26 13:28:12;;;;;;;5.93;2.78;;;;;;;;;;4965230;28;20042;-62
2023/07/26 13:30:38;;;;;;;5.07;2.58;;;;;;;;;;4965161;28;20054;-61
2023/07/26 13:33:05;;;;;;;6.72;3.30;;;;;;;;;;4965646;28;20051;-61
2023/07/26 13:35:31;;;;;;;4.65;2.72;;;;;;;;;;4965426;28;20050;-62
2023/07/26 13:37:57;;;;;;;4.35;2.70;;;;;;;;;;4968497;28;20389;-62
2023/07/26 13:40:23;;;;;;;6.95;3.92;;;;;;;;;;4968979;28;20050;-63
2023/07/26 13:42:49;;;;;;;5.90;3.20;;;;;;;;;;4968011;28;20521;-62
2023/07/26 13:45:15;;;;;;;5.32;2.70;;;;;;;;;;4970355;28;20034;-64
2023/07/26 13:47:41;;;;;;;5.88;2.70;;;;;;;;;;4971317;28;20510;-61
2023/07/26 13:50:08;;;;;;;4.85;2.85;;;;;;;;;;4967616;28;20061;-62
2023/07/26 13:52:34;;;;;;;4.45;2.88;;;;;;;;;;4965670;28;20061;-62
2023/07/26 13:55:00;;;;;;;3.72;2.75;;;;;;;;;;4969343;28;20035;-64
2023/07/26 13:57:26;;;;;;;5.82;3.22;;;;;;;;;;4966380;28;20050;-65
2023/07/26 13:59:52;;;;;;;9.32;3.50;;;;;;;;;;4964769;28;20038;-60
2023/07/26 14:02:19;;;;;;;5.75;3.10;;;;;;;;;;4966187;28;20442;-62
2023/07/26 14:04:45;;;;;;;5.60;3.08;;;;;;;;;;4965850;28;20043;-61
2023/07/26 14:07:12;;;;;;;5.80;3.17;;;;;;;;;;4970861;28;20039;-60
2023/07/26 14:09:38;;;;;;;6.63;3.30;;;;;;;;;;4971020;28;20443;-61
2023/07/26 14:12:06;;;;;;;7.40;3.10;;;;;;;;;;4967459;28;20047;-62
2023/07/26 14:14:32;;;;;;;5.93;3.10;;;;;;;;;;4966640;28;20051;-62
2023/07/26 14:16:58;;;;;;;6.65;3.72;;;;;;;;;;4976407;28;20049;-60
2023/07/26 14:19:24;;;;;;;6.95;3.25;;;;;;;;;;4967563;28;20038;-61
2023/07/26 14:21:50;;;;;;;10.13;3.05;;;;;;;;;;4968936;28;20051;-62
2023/07/26 14:24:17;;;;;;;7.00;3.47;;;;;;;;;;4969290;28;20518;-62
2023/07/26 14:26:43;;;;;;;6.68;3.40;;;;;;;;;;4971982;28;20065;-60
2023/07/26 14:29:09;;;;;;;9.30;3.47;;;;;;;;;;4968046;28;20387;-60
2023/07/26 14:31:36;;;;;;;6.30;3.50;;;;;;;;;;4969755;28;20514;-62
2023/07/26 14:34:02;;;;;;;7.05;3.70;;;;;;;;;;4972836;28;20395;-60